createdAt,value
2023-01-07T00:02:09.534Z,99211.72
2023-01-07T00:04:38.852Z,99215.31
2023-01-07T00:07:06.724Z,99210.41
2023-01-07T00:09:34.504Z,99204.81
2023-01-07T00:12:02.569Z,99218.97
2023-01-07T00:14:31.470Z,99209.78
2023-01-07T00:16:59.404Z,99213.06
2023-01-07T00:19:27.288Z,99208.97
2023-01-07T00:21:56.630Z,99202.63
2023-01-07T00:24:24.535Z,99211.53
2023-01-07T00:26:52.446Z,99199.16
2023-01-07T00:29:21.305Z,99205.72
2023-01-07T00:31:49.528Z,99190.50
2023-01-07T00:34:17.837Z,99198.97
2023-01-07T00:36:47.395Z,99191.97
2023-01-07T00:39:18.687Z,99186.03
2023-01-07T00:42:02.184Z,99180.66
2023-01-07T00:44:30.276Z,99181.50
2023-01-07T00:46:58.373Z,99176.63
2023-01-07T00:49:26.546Z,99175.25
2023-01-07T00:51:55.467Z,99176.63
2023-01-07T00:54:25.496Z,99179.16
2023-01-07T00:56:53.414Z,99172.91
2023-01-07T00:59:21.303Z,99169.94
2023-01-07T01:01:49.330Z,99167.22
2023-01-07T01:04:18.083Z,99168.88
2023-01-07T01:06:46.051Z,99173.31
2023-01-07T01:09:14.049Z,99169.75
2023-01-07T01:11:43.451Z,99172.91
2023-01-07T01:14:12.357Z,99169.13
2023-01-07T01:16:40.370Z,99154.84
2023-01-07T01:19:08.533Z,99154.72
2023-01-07T01:21:36.608Z,99161.91
2023-01-07T01:24:04.660Z,99163.84
2023-01-07T01:26:32.670Z,99162.53
2023-01-07T01:29:01.869Z,99161.03
2023-01-07T01:31:33.722Z,99156.72
2023-01-07T01:34:01.659Z,99157.47
2023-01-07T01:36:29.861Z,99160.75
2023-01-07T01:38:59.977Z,99158.09
2023-01-07T01:41:31.526Z,99158.31
2023-01-07T01:44:02.210Z,99157.47
2023-01-07T01:46:36.184Z,99154.06
2023-01-07T01:49:11.571Z,99152.47
2023-01-07T01:51:46.571Z,99145.28
2023-01-07T01:54:17.376Z,99143.06
2023-01-07T01:56:52.256Z,99147.47
2023-01-07T01:59:25.041Z,99140.09
2023-01-07T02:01:55.395Z,99144.09
2023-01-07T02:04:25.719Z,99143.22
2023-01-07T02:06:58.512Z,99140.50
2023-01-07T02:09:28.847Z,99137.53
2023-01-07T02:12:05.925Z,99131.25
2023-01-07T02:14:54.866Z,99136.75
2023-01-07T02:17:34.670Z,99121.88
2023-01-07T02:20:35.291Z,99128.38
2023-01-07T02:23:47.843Z,99123.38
2023-01-07T02:26:48.774Z,99119.16
2023-01-07T02:30:08.127Z,99113.66
2023-01-07T02:32:49.923Z,99116.81
2023-01-07T02:35:32.741Z,99104.97
2023-01-07T02:38:14.151Z,99109.53
2023-01-07T02:40:51.277Z,99104.44
2023-01-07T02:43:31.053Z,99106.00
2023-01-07T02:46:06.616Z,99094.25
2023-01-07T02:48:37.730Z,99102.09
2023-01-07T02:51:06.589Z,99096.19
2023-01-07T02:53:35.075Z,99092.03
2023-01-07T02:56:18.488Z,99085.69
2023-01-07T02:59:01.859Z,99084.97
2023-01-07T03:01:46.138Z,99083.41
2023-01-07T03:04:28.960Z,99080.63
2023-01-07T03:07:11.928Z,99074.09
2023-01-07T03:09:51.334Z,99074.50
2023-01-07T03:12:28.061Z,99069.75
2023-01-07T03:15:00.651Z,99063.91
2023-01-07T03:17:35.579Z,99068.16
2023-01-07T03:20:07.828Z,99069.75
2023-01-07T03:22:37.467Z,99066.69
2023-01-07T03:25:07.954Z,99053.97
2023-01-07T03:27:37.058Z,99049.31
2023-01-07T03:30:09.946Z,99050.59
2023-01-07T03:32:42.646Z,99045.31
2023-01-07T03:35:12.278Z,99039.06
2023-01-07T03:37:43.825Z,99039.81
2023-01-07T03:40:13.223Z,99039.38
2023-01-07T03:42:41.716Z,99040.03
2023-01-07T03:45:20.857Z,99031.97
2023-01-07T03:47:50.914Z,99036.41
2023-01-07T03:50:21.522Z,99036.53
2023-01-07T03:52:50.786Z,99040.66
2023-01-07T03:55:23.743Z,99028.06
2023-01-07T03:57:54.498Z,99030.06
2023-01-07T04:00:25.481Z,99020.47
2023-01-07T04:03:00.364Z,99024.25
2023-01-07T04:05:34.364Z,99008.28
2023-01-07T04:08:02.219Z,99012.50
2023-01-07T04:10:34.290Z,99005.97
2023-01-07T04:13:02.159Z,99008.50
2023-01-07T04:15:30.699Z,99010.41
2023-01-07T04:17:58.728Z,99000.88
2023-01-07T04:20:27.376Z,99005.75
2023-01-07T04:22:56.760Z,99002.13
2023-01-07T04:25:24.647Z,98999.63
2023-01-07T04:27:52.645Z,98993.69
2023-01-07T04:30:20.464Z,98992.22
2023-01-07T04:32:48.613Z,98992.72
2023-01-07T04:35:16.599Z,98996.22
2023-01-07T04:37:44.763Z,98985.66
2023-01-07T04:40:14.407Z,98990.94
2023-01-07T04:42:42.386Z,98982.69
2023-01-07T04:45:11.694Z,98989.47
2023-01-07T04:47:40.173Z,98986.91
2023-01-07T04:50:09.320Z,98976.97
2023-01-07T04:52:38.097Z,98983.13
2023-01-07T04:55:07.995Z,98975.69
2023-01-07T04:57:37.297Z,98977.41
2023-01-07T05:00:06.901Z,98967.47
2023-01-07T05:02:35.451Z,98962.06
2023-01-07T05:05:03.957Z,98962.59
2023-01-07T05:07:31.869Z,98966.63
2023-01-07T05:10:00.428Z,98964.94
2023-01-07T05:12:29.464Z,98960.91
2023-01-07T05:14:59.789Z,98959.44
2023-01-07T05:17:27.720Z,98957.31
2023-01-07T05:19:55.545Z,98950.78
2023-01-07T05:22:24.500Z,98959.84
2023-01-07T05:24:52.406Z,98952.03
2023-01-07T05:27:21.123Z,98946.53
2023-01-07T05:29:49.059Z,98949.72
2023-01-07T05:32:18.325Z,98943.19
2023-01-07T05:34:47.953Z,98942.31
2023-01-07T05:37:16.573Z,98940.28
2023-01-07T05:39:45.079Z,98930.88
2023-01-07T05:42:17.954Z,98938.81
2023-01-07T05:44:45.883Z,98925.41
2023-01-07T05:47:16.308Z,98927.72
2023-01-07T05:49:45.605Z,98923.34
2023-01-07T05:52:13.466Z,98920.94
2023-01-07T05:54:41.505Z,98913.97
2023-01-07T05:57:09.381Z,98915.00
2023-01-07T05:59:37.154Z,98915.69
2023-01-07T06:02:05.671Z,98903.19
2023-01-07T06:04:34.276Z,98907.44
2023-01-07T06:07:03.644Z,98906.47
2023-01-07T06:09:33.550Z,98902.97
2023-01-07T06:12:01.396Z,98902.78
2023-01-07T06:14:29.149Z,98896.03
2023-01-07T06:16:59.647Z,98903.84
2023-01-07T06:19:27.495Z,98907.97
2023-01-07T06:21:55.310Z,98900.91
2023-01-07T06:24:24.540Z,98897.72
2023-01-07T06:26:52.454Z,98902.78
2023-01-07T06:29:22.550Z,98899.94
2023-01-07T06:31:50.491Z,98904.25
2023-01-07T06:34:20.440Z,98897.94
2023-01-07T06:36:48.325Z,98900.69
2023-01-07T06:39:16.384Z,98900.69
2023-01-07T06:41:45.586Z,98896.66
2023-01-07T06:44:13.381Z,98897.19
2023-01-07T06:46:41.304Z,98888.44
2023-01-07T06:49:09.236Z,98888.22
2023-01-07T06:51:37.191Z,98885.88
2023-01-07T06:54:05.212Z,98880.19
2023-01-07T06:56:38.508Z,98875.09
2023-01-07T06:59:12.728Z,98873.81
2023-01-07T07:01:41.774Z,98872.53
2023-01-07T07:04:09.940Z,98872.03
2023-01-07T07:06:37.920Z,98872.53
2023-01-07T07:09:05.793Z,98874.25
2023-01-07T07:11:33.704Z,98870.44
2023-01-07T07:14:01.620Z,98869.47
2023-01-07T07:16:32.638Z,98871.91
2023-01-07T07:19:00.661Z,98862.81
2023-01-07T07:21:28.598Z,98866.53
2023-01-07T07:23:56.491Z,98865.72
2023-01-07T07:26:24.312Z,98859.47
2023-01-07T07:28:52.187Z,98868.66
2023-01-07T07:31:20.096Z,98872.47
2023-01-07T07:33:49.294Z,98867.06
2023-01-07T07:36:17.183Z,98868.34
2023-01-07T07:38:45.056Z,98867.94
2023-01-07T07:41:14.994Z,98856.09
2023-01-07T07:43:42.951Z,98859.25
2023-01-07T07:46:10.888Z,98849.66
2023-01-07T07:48:38.758Z,98849.97
2023-01-07T07:51:08.310Z,98850.91
2023-01-07T07:53:36.204Z,98853.13
2023-01-07T07:56:04.040Z,98848.47
2023-01-07T07:58:32.084Z,98838.34
2023-01-07T08:01:00.015Z,98835.88
2023-01-07T08:03:30.573Z,98838.78
2023-01-07T08:05:59.653Z,98835.25
2023-01-07T08:08:28.998Z,98834.94
2023-01-07T08:10:57.400Z,98834.41
2023-01-07T08:13:25.862Z,98832.06
2023-01-07T08:15:53.825Z,98834.59
2023-01-07T08:18:21.740Z,98830.69
2023-01-07T08:20:49.673Z,98833.03
2023-01-07T08:23:17.978Z,98826.47
2023-01-07T08:25:47.163Z,98825.38
2023-01-07T08:28:15.017Z,98828.97
2023-01-07T08:30:44.050Z,98827.91
2023-01-07T08:33:12.082Z,98820.53
2023-01-07T08:35:39.848Z,98815.00
2023-01-07T08:38:09.270Z,98819.84
2023-01-07T08:40:38.464Z,98817.09
2023-01-07T08:43:08.968Z,98815.31
2023-01-07T08:45:37.378Z,98817.50
2023-01-07T08:48:08.169Z,98810.94
2023-01-07T08:50:35.983Z,98801.72
2023-01-07T08:53:03.867Z,98809.63
2023-01-07T08:55:31.658Z,98806.47
2023-01-07T08:57:59.733Z,98809.88
2023-01-07T09:00:28.939Z,98804.56
2023-01-07T09:02:56.907Z,98800.72
2023-01-07T09:05:26.854Z,98797.34
2023-01-07T09:07:55.650Z,98797.13
2023-01-07T09:10:26.523Z,98796.81
2023-01-07T09:12:54.377Z,98797.88
2023-01-07T09:15:22.351Z,98793.78
2023-01-07T09:17:51.463Z,98801.53
2023-01-07T09:20:20.093Z,98803.03
2023-01-07T09:22:47.987Z,98802.09
2023-01-07T09:25:16.403Z,98792.78
2023-01-07T09:27:45.619Z,98792.56
2023-01-07T09:30:14.076Z,98792.91
2023-01-07T09:32:44.512Z,98801.16
2023-01-07T09:35:15.482Z,98796.63
2023-01-07T09:37:43.375Z,98808.53
2023-01-07T09:40:19.722Z,98803.75
2023-01-07T09:42:56.349Z,98806.16
2023-01-07T09:45:28.302Z,98795.53
2023-01-07T09:47:59.259Z,98797.75
2023-01-07T09:50:42.101Z,98787.84
2023-01-07T09:53:16.127Z,98785.31
2023-01-07T09:56:10.869Z,98794.25
2023-01-07T09:58:33.335Z,98791.63
2023-01-07T10:01:09.198Z,98784.81
2023-01-07T10:03:52.294Z,98776.53
2023-01-07T10:06:42.237Z,98771.31
2023-01-07T10:09:22.952Z,98767.28
2023-01-07T10:12:00.796Z,98765.09
2023-01-07T10:15:04.359Z,98766.47
2023-01-07T10:17:43.583Z,98763.22
2023-01-07T10:20:20.707Z,98762.22
2023-01-07T10:22:54.815Z,98751.44
2023-01-07T10:25:27.347Z,98742.09
2023-01-07T10:27:59.816Z,98736.44
2023-01-07T10:30:31.490Z,98736.31
2023-01-07T10:33:12.080Z,98737.06
2023-01-07T10:35:41.698Z,98736.78
2023-01-07T10:38:16.252Z,98741.63
2023-01-07T10:40:48.868Z,98732.13
2023-01-07T10:43:27.447Z,98722.59
2023-01-07T10:46:18.800Z,98715.84
2023-01-07T10:49:10.382Z,98717.06
2023-01-07T10:51:51.755Z,98706.94
2023-01-07T10:54:38.303Z,98708.47
2023-01-07T10:57:11.339Z,98696.25
2023-01-07T10:59:39.766Z,98685.69
2023-01-07T11:02:17.933Z,98688.03
2023-01-07T11:04:46.059Z,98679.28
2023-01-07T11:07:24.067Z,98679.34
2023-01-07T11:09:54.604Z,98672.69
2023-01-07T11:12:33.841Z,98667.56
2023-01-07T11:15:06.201Z,98660.53
2023-01-07T11:17:38.670Z,98653.03
2023-01-07T11:20:08.100Z,98649.63
2023-01-07T11:22:38.098Z,98645.97
2023-01-07T11:25:29.129Z,98643.66
2023-01-07T11:28:00.082Z,98642.78
2023-01-07T11:30:30.044Z,98627.06
2023-01-07T11:33:01.556Z,98631.41
2023-01-07T11:35:31.859Z,98623.78
2023-01-07T11:38:02.127Z,98618.31
2023-01-07T11:40:32.870Z,98604.88
2023-01-07T11:43:02.631Z,98608.13
2023-01-07T11:45:34.034Z,98606.19
2023-01-07T11:48:08.003Z,98596.88
2023-01-07T11:50:38.616Z,98601.88
2023-01-07T11:53:28.054Z,98598.31
2023-01-07T11:56:00.627Z,98587.94
2023-01-07T11:58:31.252Z,98584.63
2023-01-07T12:01:21.587Z,98575.88
2023-01-07T12:04:14.604Z,98574.31
2023-01-07T12:06:47.132Z,98565.06
2023-01-07T12:09:23.841Z,98565.63
2023-01-07T12:11:54.704Z,98551.34
2023-01-07T12:14:31.529Z,98549.94
2023-01-07T12:17:11.068Z,98542.44
2023-01-07T12:20:08.267Z,98526.56
2023-01-07T12:22:45.950Z,98527.25
2023-01-07T12:25:36.979Z,98522.78
2023-01-07T12:28:12.875Z,98505.59
2023-01-07T12:31:19.183Z,98504.88
2023-01-07T12:34:04.986Z,98496.16
2023-01-07T12:36:43.268Z,98499.81
2023-01-07T12:39:20.238Z,98480.53
2023-01-07T12:41:58.111Z,98480.41
2023-01-07T12:44:28.079Z,98477.16
2023-01-07T12:47:30.742Z,98474.09
2023-01-07T12:49:59.868Z,98459.84
2023-01-07T12:52:37.759Z,98459.00
2023-01-07T12:55:14.754Z,98451.97
2023-01-07T12:57:45.352Z,98465.84
2023-01-07T13:00:20.120Z,98456.22
2023-01-07T13:02:54.469Z,98452.28
2023-01-07T13:05:26.205Z,98451.69
2023-01-07T13:07:58.051Z,98455.63
2023-01-07T13:10:29.568Z,98456.41
2023-01-07T13:13:02.412Z,98447.78
2023-01-07T13:15:33.928Z,98447.78
2023-01-07T13:18:13.987Z,98442.22
2023-01-07T13:21:06.901Z,98442.91
2023-01-07T13:24:07.208Z,98442.63
2023-01-07T13:26:45.920Z,98429.19
2023-01-07T13:29:28.777Z,98431.53
2023-01-07T13:32:28.966Z,98427.91
2023-01-07T13:35:18.734Z,98414.88
2023-01-07T13:38:01.192Z,98408.09
2023-01-07T13:40:48.841Z,98406.13
2023-01-07T13:43:30.380Z,98413.69
2023-01-07T13:46:01.395Z,98416.31
2023-01-07T13:48:31.030Z,98405.25
2023-01-07T13:51:01.128Z,98414.78
2023-01-07T13:53:34.924Z,98410.16
2023-01-07T13:56:37.853Z,98405.25
2023-01-07T13:59:27.983Z,98405.09
2023-01-07T14:02:22.185Z,98397.41
2023-01-07T14:05:04.149Z,98397.38
2023-01-07T14:07:32.875Z,98398.94
2023-01-07T14:10:00.758Z,98391.41
2023-01-07T14:13:05.993Z,98401.34
2023-01-07T14:16:01.293Z,98399.06
2023-01-07T14:19:04.147Z,98399.13
2023-01-07T14:21:57.013Z,98408.88
2023-01-07T14:24:56.081Z,98404.09
2023-01-07T14:27:47.252Z,98412.97
2023-01-07T14:30:21.519Z,98402.41
2023-01-07T14:32:58.143Z,98403.75
2023-01-07T14:35:32.993Z,98403.94
2023-01-07T14:38:02.398Z,98403.16
2023-01-07T14:41:07.718Z,98404.13
2023-01-07T14:44:00.153Z,98400.25
2023-01-07T14:46:53.588Z,98404.63
2023-01-07T14:49:51.014Z,98406.06
2023-01-07T14:52:50.253Z,98404.16
2023-01-07T14:55:32.285Z,98406.22
2023-01-07T14:58:23.666Z,98409.41
2023-01-07T15:01:13.890Z,98405.28
2023-01-07T15:04:09.302Z,98404.00
2023-01-07T15:06:39.279Z,98404.34
2023-01-07T15:09:29.451Z,98404.94
2023-01-07T15:12:20.271Z,98394.06
2023-01-07T15:15:11.173Z,98408.81
2023-01-07T15:17:40.382Z,98398.03
2023-01-07T15:20:10.293Z,98402.00
2023-01-07T15:22:53.095Z,98396.78
2023-01-07T15:25:33.568Z,98388.50
2023-01-07T15:28:12.165Z,98389.69
2023-01-07T15:30:51.372Z,98393.28
2023-01-07T15:33:41.898Z,98390.09
2023-01-07T15:36:13.880Z,98386.00
2023-01-07T15:38:45.964Z,98386.09
2023-01-07T15:41:30.739Z,98383.34
2023-01-07T15:44:02.183Z,98382.81
2023-01-07T15:46:32.191Z,98391.84
2023-01-07T15:49:14.565Z,98386.75
2023-01-07T15:51:44.590Z,98376.97
2023-01-07T15:54:30.352Z,98375.06
2023-01-07T15:57:01.459Z,98383.34
2023-01-07T15:59:33.246Z,98373.75
2023-01-07T16:02:07.336Z,98375.56
2023-01-07T16:04:38.580Z,98375.34
2023-01-07T16:07:06.646Z,98368.50
2023-01-07T16:09:35.317Z,98373.81
2023-01-07T16:12:03.256Z,98377.16
2023-01-07T16:14:38.064Z,98380.19
2023-01-07T16:17:16.448Z,98379.22
2023-01-07T16:19:44.421Z,98392.56
2023-01-07T16:22:16.502Z,98380.25
2023-01-07T16:24:50.624Z,98380.63
2023-01-07T16:27:24.108Z,98384.84
2023-01-07T16:29:55.931Z,98396.13
2023-01-07T16:32:25.574Z,98391.09
2023-01-07T16:35:07.555Z,98392.31
2023-01-07T16:37:39.552Z,98401.94
2023-01-07T16:40:19.033Z,98391.47
2023-01-07T16:42:49.172Z,98393.03
2023-01-07T16:45:27.601Z,98400.25
2023-01-07T16:48:17.955Z,98388.94
2023-01-07T16:50:47.543Z,98392.34
2023-01-07T16:53:30.590Z,98391.59
2023-01-07T16:56:14.691Z,98378.63
2023-01-07T16:58:48.728Z,98383.44
2023-01-07T17:01:20.458Z,98386.06
2023-01-07T17:03:56.546Z,98387.53
2023-01-07T17:06:29.994Z,98383.81
2023-01-07T17:08:58.779Z,98383.66
2023-01-07T17:11:32.734Z,98383.66
2023-01-07T17:14:03.011Z,98379.59
2023-01-07T17:16:33.641Z,98374.78
2023-01-07T17:19:26.177Z,98379.59
2023-01-07T17:21:54.612Z,98364.31
2023-01-07T17:24:50.589Z,98372.75
2023-01-07T17:27:26.850Z,98358.31
2023-01-07T17:29:54.958Z,98357.59
2023-01-07T17:32:25.219Z,98349.31
2023-01-07T17:34:53.216Z,98345.94
2023-01-07T17:37:21.366Z,98348.81
2023-01-07T17:39:51.315Z,98350.66
2023-01-07T17:42:42.344Z,98351.66
2023-01-07T17:45:16.855Z,98349.78
2023-01-07T17:47:46.333Z,98348.47
2023-01-07T17:50:15.802Z,98346.13
2023-01-07T17:52:46.278Z,98348.69
2023-01-07T17:55:16.316Z,98348.41
2023-01-07T17:57:44.207Z,98354.19
2023-01-07T18:00:21.188Z,98355.66
2023-01-07T18:02:51.685Z,98349.97
2023-01-07T18:05:21.379Z,98350.28
2023-01-07T18:07:50.370Z,98350.84
2023-01-07T18:10:20.138Z,98349.56
2023-01-07T18:12:47.645Z,98356.44
2023-01-07T18:15:20.749Z,98354.19
2023-01-07T18:17:50.153Z,98362.00
2023-01-07T18:20:19.610Z,98357.06
2023-01-07T18:22:48.080Z,98355.63
2023-01-07T18:25:18.447Z,98349.59
2023-01-07T18:27:46.924Z,98351.03
2023-01-07T18:30:16.883Z,98350.00
2023-01-07T18:32:45.570Z,98344.25
2023-01-07T18:35:15.238Z,98352.31
2023-01-07T18:37:43.001Z,98351.22
2023-01-07T18:40:11.490Z,98346.09
2023-01-07T18:42:39.256Z,98345.69
2023-01-07T18:45:10.720Z,98348.66
2023-01-07T18:47:38.543Z,98345.25
2023-01-07T18:50:08.488Z,98354.22
2023-01-07T18:52:39.565Z,98351.88
2023-01-07T18:55:08.854Z,98345.47
2023-01-07T18:57:37.017Z,98353.84
2023-01-07T19:00:06.221Z,98351.63
2023-01-07T19:02:33.968Z,98347.75
2023-01-07T19:05:01.735Z,98347.28
2023-01-07T19:07:30.569Z,98347.44
2023-01-07T19:10:02.174Z,98346.22
2023-01-07T19:12:30.011Z,98335.94
2023-01-07T19:14:57.769Z,98331.34
2023-01-07T19:17:25.612Z,98335.81
2023-01-07T19:19:53.387Z,98335.69
2023-01-07T19:22:21.314Z,98331.84
2023-01-07T19:24:49.093Z,98332.50
2023-01-07T19:27:22.011Z,98318.75
2023-01-07T19:29:50.054Z,98326.84
2023-01-07T19:32:17.909Z,98319.25
2023-01-07T19:34:45.814Z,98322.22
2023-01-07T19:37:13.691Z,98324.31
2023-01-07T19:39:41.576Z,98324.22
2023-01-07T19:42:09.937Z,98329.56
2023-01-07T19:44:41.281Z,98321.59
2023-01-07T19:47:09.397Z,98328.50
2023-01-07T19:49:37.159Z,98333.09
2023-01-07T19:52:05.112Z,98323.91
2023-01-07T19:54:32.879Z,98331.69
2023-01-07T19:57:00.702Z,98332.06
2023-01-07T19:59:28.447Z,98320.34
2023-01-07T20:01:58.020Z,98329.59
2023-01-07T20:04:27.299Z,98330.94
2023-01-07T20:06:55.466Z,98318.41
2023-01-07T20:09:23.396Z,98326.75
2023-01-07T20:11:51.237Z,98319.22
2023-01-07T20:14:19.175Z,98317.13
2023-01-07T20:16:46.991Z,98314.16
2023-01-07T20:19:16.221Z,98322.84
2023-01-07T20:21:44.019Z,98317.63
2023-01-07T20:24:13.148Z,98315.09
2023-01-07T20:26:41.609Z,98308.00
2023-01-07T20:29:09.492Z,98307.50
2023-01-07T20:31:37.439Z,98299.41
2023-01-07T20:34:05.383Z,98291.69
2023-01-07T20:36:34.612Z,98283.69
2023-01-07T20:39:05.918Z,98288.09
2023-01-07T20:41:35.749Z,98279.03
2023-01-07T20:44:05.484Z,98268.44
2023-01-07T20:46:35.767Z,98265.66
2023-01-07T20:49:04.712Z,98277.97
2023-01-07T20:51:34.360Z,98287.41
2023-01-07T20:54:02.319Z,98280.69
2023-01-07T20:56:32.424Z,98286.81
2023-01-07T20:59:01.783Z,98282.91
2023-01-07T21:01:32.296Z,98284.13
2023-01-07T21:04:01.824Z,98281.34
2023-01-07T21:06:29.744Z,98287.41
2023-01-07T21:08:59.040Z,98280.69
2023-01-07T21:11:27.047Z,98273.13
2023-01-07T21:13:56.301Z,98280.69
2023-01-07T21:16:25.165Z,98280.94
2023-01-07T21:18:53.004Z,98275.38
2023-01-07T21:21:23.986Z,98269.72
2023-01-07T21:23:52.183Z,98269.28
2023-01-07T21:26:21.469Z,98281.09
2023-01-07T21:28:49.453Z,98275.22
2023-01-07T21:31:17.826Z,98282.25
2023-01-07T21:33:45.761Z,98278.13
2023-01-07T21:36:15.256Z,98280.75
2023-01-07T21:38:43.951Z,98280.47
2023-01-07T21:41:13.994Z,98276.75
2023-01-07T21:43:43.595Z,98276.94
2023-01-07T21:46:12.239Z,98272.56
2023-01-07T21:48:41.606Z,98269.38
2023-01-07T21:51:12.153Z,98266.63
2023-01-07T21:53:40.049Z,98270.00
2023-01-07T21:56:10.426Z,98268.22
2023-01-07T21:58:38.747Z,98261.38
2023-01-07T22:01:09.336Z,98267.50
2023-01-07T22:03:37.988Z,98270.25
2023-01-07T22:06:11.640Z,98260.31
2023-01-07T22:08:39.425Z,98252.75
2023-01-07T22:11:07.714Z,98245.38
2023-01-07T22:13:35.504Z,98252.53
2023-01-07T22:16:05.472Z,98249.50
2023-01-07T22:18:34.761Z,98241.41
2023-01-07T22:21:02.587Z,98236.75
2023-01-07T22:23:30.379Z,98247.50
2023-01-07T22:26:03.423Z,98241.63
2023-01-07T22:28:32.999Z,98238.47
2023-01-07T22:31:04.161Z,98246.66
2023-01-07T22:33:31.878Z,98249.00
2023-01-07T22:36:01.194Z,98243.16
2023-01-07T22:38:29.884Z,98242.88
2023-01-07T22:40:58.061Z,98250.44
2023-01-07T22:43:26.783Z,98250.03
2023-01-07T22:45:59.492Z,98239.50
2023-01-07T22:48:33.185Z,98244.03
2023-01-07T22:51:06.865Z,98238.63
2023-01-07T22:53:34.705Z,98238.66
2023-01-07T22:56:04.355Z,98239.47
2023-01-07T22:58:32.277Z,98229.69
2023-01-07T23:01:14.048Z,98233.41
2023-01-07T23:03:42.717Z,98233.09
2023-01-07T23:06:14.580Z,98229.50
2023-01-07T23:08:43.685Z,98233.31
2023-01-07T23:11:31.915Z,98228.78
2023-01-07T23:13:59.898Z,98230.22
2023-01-07T23:16:27.884Z,98220.88
2023-01-07T23:18:55.747Z,98220.13
2023-01-07T23:21:27.056Z,98223.41
2023-01-07T23:23:54.860Z,98211.50
2023-01-07T23:26:22.693Z,98202.66
2023-01-07T23:28:50.467Z,98208.09
2023-01-07T23:31:18.416Z,98199.25
2023-01-07T23:33:46.235Z,98204.13
2023-01-07T23:36:14.048Z,98199.72
2023-01-07T23:38:43.835Z,98197.22
2023-01-07T23:41:12.585Z,98191.84
2023-01-07T23:43:40.352Z,98189.22
2023-01-07T23:46:08.879Z,98190.69
2023-01-07T23:48:38.192Z,98178.91
2023-01-07T23:51:08.531Z,98177.13
2023-01-07T23:53:39.219Z,98188.53
2023-01-07T23:56:09.014Z,98183.97
2023-01-07T23:58:37.519Z,98186.38
